createdAt,value
2018-09-11T00:00:00.929Z,2.50
2018-09-11T00:01:00.893Z,2.30
2018-09-11T00:02:00.854Z,2.50
2018-09-11T00:03:00.821Z,2.40
2018-09-11T00:04:00.794Z,2.20
2018-09-11T00:05:00.754Z,2.90
2018-09-11T00:06:00.725Z,2.60
2018-09-11T00:07:00.691Z,2.40
2018-09-11T00:08:00.652Z,2.40
2018-09-11T00:09:00.620Z,2.70
2018-09-11T00:10:00.581Z,2.40
2018-09-11T00:11:00.549Z,2.50
2018-09-11T00:12:00.515Z,2.50
2018-09-11T00:13:00.535Z,2.70
2018-09-11T00:14:00.452Z,2.60
2018-09-11T00:15:00.407Z,2.50
2018-09-11T00:16:00.380Z,2.40
2018-09-11T00:17:00.347Z,2.50
2018-09-11T00:18:00.310Z,2.80
2018-09-11T00:19:00.284Z,2.90
2018-09-11T00:20:00.266Z,2.60
2018-09-11T00:21:00.208Z,2.50
2018-09-11T00:22:00.167Z,2.80
2018-09-11T00:23:00.133Z,2.80
2018-09-11T00:24:00.103Z,3.00
2018-09-11T00:25:00.068Z,2.60
2018-09-11T00:26:00.037Z,2.90
2018-09-11T00:27:00.000Z,2.50
2018-09-11T00:27:59.972Z,2.40
2018-09-11T00:28:59.927Z,2.70
2018-09-11T00:29:59.892Z,2.40
2018-09-11T00:30:59.864Z,2.70
2018-09-11T00:31:59.826Z,2.20
2018-09-11T00:32:59.790Z,2.40
2018-09-11T00:33:59.755Z,2.60
2018-09-11T00:34:59.722Z,2.50
2018-09-11T00:35:59.689Z,2.70
2018-09-11T00:36:59.656Z,2.50
2018-09-11T00:37:59.621Z,2.70
2018-09-11T00:38:59.589Z,2.50
2018-09-11T00:39:59.553Z,2.80
2018-09-11T00:40:59.518Z,2.30
2018-09-11T00:41:59.480Z,2.40
2018-09-11T00:42:59.458Z,2.30
2018-09-11T00:43:59.411Z,2.20
2018-09-11T00:44:59.379Z,2.40
2018-09-11T00:45:59.362Z,2.40
2018-09-11T00:46:59.313Z,2.50
2018-09-11T00:47:59.273Z,2.80
2018-09-11T00:48:59.241Z,2.70
2018-09-11T00:49:59.210Z,2.20
2018-09-11T00:50:59.173Z,2.50
2018-09-11T00:51:59.194Z,2.60
2018-09-11T00:52:59.099Z,2.30
2018-09-11T00:53:59.069Z,2.50
2018-09-11T00:54:59.033Z,2.40
2018-09-11T00:55:58.999Z,2.70
2018-09-11T00:56:58.971Z,2.80
2018-09-11T00:57:58.939Z,2.60
2018-09-11T00:58:58.898Z,2.70
2018-09-11T00:59:58.864Z,2.50
2018-09-11T01:00:58.823Z,2.80
2018-09-11T01:01:58.786Z,2.40
2018-09-11T01:02:58.763Z,2.40
2018-09-11T01:03:58.723Z,2.50
2018-09-11T01:04:58.684Z,2.60
2018-09-11T01:05:58.698Z,2.60
2018-09-11T01:06:58.617Z,2.50
2018-09-11T01:07:58.582Z,2.90
2018-09-11T01:08:58.552Z,2.70
2018-09-11T01:09:58.528Z,2.40
2018-09-11T01:10:58.487Z,2.30
2018-09-11T01:11:58.444Z,2.60
2018-09-11T01:12:58.413Z,2.40
2018-09-11T01:13:58.369Z,2.40
2018-09-11T01:14:58.335Z,2.40
2018-09-11T01:15:58.303Z,2.50
2018-09-11T01:16:58.269Z,2.50
2018-09-11T01:17:58.238Z,2.50
2018-09-11T01:18:58.206Z,2.40
2018-09-11T01:19:58.165Z,2.40
2018-09-11T01:20:58.138Z,2.50
2018-09-11T01:21:58.099Z,2.50
2018-09-11T01:22:58.067Z,2.40
2018-09-11T01:23:58.036Z,2.30
2018-09-11T01:24:58.610Z,2.80
2018-09-11T01:25:57.952Z,2.40
2018-09-11T01:26:57.926Z,2.60
2018-09-11T01:27:57.886Z,2.30
2018-09-11T01:28:57.853Z,2.40
2018-09-11T01:29:57.820Z,2.60
2018-09-11T01:30:57.794Z,2.40
2018-09-11T01:31:57.748Z,2.00
2018-09-11T01:32:57.711Z,2.70
2018-09-11T01:33:57.679Z,2.30
2018-09-11T01:34:57.651Z,2.30
2018-09-11T01:35:57.611Z,2.50
2018-09-11T01:36:57.573Z,2.30
2018-09-11T01:37:57.535Z,2.40
2018-09-11T01:38:57.499Z,2.40
2018-09-11T01:39:57.467Z,2.00
2018-09-11T01:40:57.440Z,2.10
2018-09-11T01:41:57.401Z,2.30
2018-09-11T01:42:57.367Z,2.50
2018-09-11T01:43:57.340Z,2.10
2018-09-11T01:44:57.294Z,2.00
2018-09-11T01:45:57.258Z,2.10
2018-09-11T01:46:57.223Z,2.10
2018-09-11T01:47:57.191Z,2.00
2018-09-11T01:48:57.156Z,2.30
2018-09-11T01:49:57.122Z,2.20
2018-09-11T01:50:57.085Z,2.20
2018-09-11T01:51:57.049Z,2.10
2018-09-11T01:52:57.016Z,2.10
2018-09-11T01:53:56.983Z,2.10
2018-09-11T01:54:56.952Z,2.30
2018-09-11T01:55:56.912Z,2.10
2018-09-11T01:56:56.874Z,2.00
2018-09-11T01:57:56.849Z,2.20
2018-09-11T01:58:56.804Z,2.30
2018-09-11T01:59:56.782Z,2.10
2018-09-11T02:00:56.735Z,2.10
2018-09-11T02:01:56.702Z,1.90
2018-09-11T02:02:56.669Z,2.00
2018-09-11T02:03:56.631Z,2.30
2018-09-11T02:04:56.595Z,2.60
2018-09-11T02:05:56.559Z,2.00
2018-09-11T02:06:56.528Z,1.90
2018-09-11T02:07:56.493Z,2.00
2018-09-11T02:08:56.455Z,2.10
2018-09-11T02:09:56.419Z,2.10
2018-09-11T02:10:56.384Z,2.10
2018-09-11T02:11:56.350Z,2.10
2018-09-11T02:12:56.320Z,2.20
2018-09-11T02:13:56.282Z,2.10
2018-09-11T02:14:56.248Z,2.30
2018-09-11T02:15:56.212Z,2.30
2018-09-11T02:16:56.179Z,2.30
2018-09-11T02:17:56.137Z,2.30
2018-09-11T02:18:56.105Z,2.10
2018-09-11T02:19:56.073Z,1.90
2018-09-11T02:20:56.040Z,2.00
2018-09-11T02:21:56.005Z,2.00
2018-09-11T02:22:55.965Z,2.10
2018-09-11T02:23:55.933Z,2.00
2018-09-11T02:24:55.899Z,2.00
2018-09-11T02:25:55.866Z,2.00
2018-09-11T02:26:55.836Z,2.20
2018-09-11T02:27:55.791Z,2.40
2018-09-11T02:28:55.756Z,2.10
2018-09-11T02:29:55.720Z,2.30
2018-09-11T02:30:55.688Z,2.40
2018-09-11T02:31:55.648Z,2.10
2018-09-11T02:32:55.619Z,2.20
2018-09-11T02:33:55.582Z,2.10
2018-09-11T02:34:55.545Z,2.60
2018-09-11T02:35:55.547Z,2.10
2018-09-11T02:36:55.472Z,1.90
2018-09-11T02:37:55.441Z,2.40
2018-09-11T02:38:55.407Z,2.20
2018-09-11T02:39:55.373Z,2.00
2018-09-11T02:40:55.337Z,2.10
2018-09-11T02:41:55.303Z,2.10
2018-09-11T02:42:55.263Z,2.20
2018-09-11T02:43:55.238Z,2.00
2018-09-11T02:44:55.196Z,2.00
2018-09-11T02:45:55.164Z,2.10
2018-09-11T02:46:55.134Z,2.30
2018-09-11T02:47:55.092Z,2.10
2018-09-11T02:48:55.050Z,2.40
2018-09-11T02:49:55.017Z,2.30
2018-09-11T02:50:55.017Z,2.20
2018-09-11T02:51:54.947Z,2.10
2018-09-11T02:52:54.921Z,2.10
2018-09-11T02:53:54.878Z,2.40
2018-09-11T02:54:54.849Z,2.10
2018-09-11T02:55:54.811Z,2.40
2018-09-11T02:56:54.778Z,1.90
2018-09-11T02:57:54.738Z,2.20
2018-09-11T02:58:54.703Z,1.90
2018-09-11T02:59:54.671Z,2.30
2018-09-11T03:00:54.631Z,1.90
2018-09-11T03:01:54.600Z,2.30
2018-09-11T03:02:54.561Z,2.30
2018-09-11T03:03:54.523Z,2.40
2018-09-11T03:04:54.493Z,2.10
2018-09-11T03:05:54.456Z,2.20
2018-09-11T03:06:54.421Z,2.10
2018-09-11T03:07:54.390Z,2.10
2018-09-11T03:08:54.348Z,2.20
2018-09-11T03:09:54.316Z,2.00
2018-09-11T03:10:54.281Z,2.30
2018-09-11T03:11:54.250Z,1.90
2018-09-11T03:12:54.260Z,2.20
2018-09-11T03:13:54.180Z,2.20
2018-09-11T03:14:54.137Z,2.10
2018-09-11T03:15:54.100Z,2.80
2018-09-11T03:16:54.071Z,2.20
2018-09-11T03:17:54.032Z,2.30
2018-09-11T03:18:54.015Z,2.40
2018-09-11T03:19:53.965Z,2.20
2018-09-11T03:20:53.925Z,2.30
2018-09-11T03:21:53.890Z,2.20
2018-09-11T03:22:53.857Z,2.20
2018-09-11T03:23:53.825Z,2.10
2018-09-11T03:24:53.788Z,1.90
2018-09-11T03:25:53.751Z,2.30
2018-09-11T03:26:53.713Z,2.00
2018-09-11T03:27:53.682Z,2.30
2018-09-11T03:28:53.662Z,2.20
2018-09-11T03:29:53.613Z,2.10
2018-09-11T03:30:53.576Z,2.10
2018-09-11T03:31:53.543Z,2.00
2018-09-11T03:32:53.507Z,2.00
2018-09-11T03:33:53.465Z,2.10
2018-09-11T03:34:53.431Z,2.30
2018-09-11T03:35:53.396Z,2.00
2018-09-11T03:36:53.368Z,2.30
2018-09-11T03:37:53.328Z,2.10
2018-09-11T03:38:53.291Z,2.20
2018-09-11T03:39:53.261Z,2.00
2018-09-11T03:40:53.224Z,2.30
2018-09-11T03:41:53.184Z,1.90
2018-09-11T03:42:53.155Z,2.00
2018-09-11T03:43:53.123Z,2.00
2018-09-11T03:44:53.075Z,2.20
2018-09-11T03:45:53.049Z,2.00
2018-09-11T03:46:53.007Z,2.00
2018-09-11T03:47:52.968Z,2.10
2018-09-11T03:48:52.944Z,2.10
2018-09-11T03:49:52.905Z,2.30
2018-09-11T03:50:52.869Z,2.00
2018-09-11T03:51:52.840Z,2.20
2018-09-11T03:52:52.792Z,2.10
2018-09-11T03:53:52.763Z,1.90
2018-09-11T04:07:03.261Z,2.10
2018-09-11T04:08:03.171Z,2.40
2018-09-11T04:09:03.136Z,2.00
2018-09-11T04:10:03.094Z,2.10
2018-09-11T04:11:03.067Z,2.00
2018-09-11T04:12:03.037Z,2.40
2018-09-11T04:13:02.978Z,2.00
2018-09-11T04:14:02.940Z,1.90
2018-09-11T04:15:02.906Z,1.80
2018-09-11T04:16:02.867Z,1.80
2018-09-11T04:17:02.827Z,2.00
2018-09-11T04:18:02.791Z,2.70
2018-09-11T04:19:02.749Z,2.00
2018-09-11T04:20:02.719Z,2.30
2018-09-11T04:21:02.688Z,1.80
2018-09-11T04:22:02.648Z,2.10
2018-09-11T04:23:02.609Z,2.00
2018-09-11T04:24:02.581Z,2.10
2018-09-11T04:25:02.537Z,1.90
2018-09-11T04:26:02.500Z,2.30
2018-09-11T04:27:02.467Z,2.10
2018-09-11T04:28:02.434Z,2.40
2018-09-11T04:29:02.395Z,2.40
2018-09-11T04:30:02.362Z,2.10
2018-09-11T04:31:02.315Z,2.00
2018-09-11T04:32:02.288Z,1.80
2018-09-11T04:33:02.269Z,1.90
2018-09-11T04:34:02.212Z,2.10
2018-09-11T04:35:02.181Z,2.20
2018-09-11T04:36:02.135Z,1.90
2018-09-11T04:37:02.104Z,2.10
2018-09-11T04:38:02.077Z,2.20
2018-09-11T04:39:02.037Z,1.80
2018-09-11T04:40:01.995Z,1.60
2018-09-11T04:41:01.966Z,1.90
2018-09-11T04:42:01.938Z,2.00
2018-09-11T04:43:01.926Z,2.20
2018-09-11T04:44:01.856Z,2.00
2018-09-11T04:45:01.820Z,1.70
2018-09-11T04:46:01.782Z,1.80
2018-09-11T04:47:01.751Z,1.90
2018-09-11T04:48:01.710Z,2.00
2018-09-11T04:49:01.693Z,2.10
2018-09-11T04:50:01.636Z,2.10
2018-09-11T04:51:01.600Z,2.10
2018-09-11T04:52:01.570Z,2.00
2018-09-11T04:53:01.540Z,2.00
2018-09-11T04:54:01.500Z,2.20
2018-09-11T04:55:01.465Z,2.10
2018-09-11T04:56:01.476Z,1.90
2018-09-11T04:57:01.392Z,2.00
2018-09-11T04:58:01.353Z,1.90
2018-09-11T04:59:01.327Z,1.90
2018-09-11T05:00:01.280Z,1.90
2018-09-11T05:01:01.244Z,2.20
2018-09-11T05:02:01.216Z,1.80
2018-09-11T05:03:01.176Z,1.90
2018-09-11T05:04:01.150Z,2.10
2018-09-11T05:05:01.105Z,2.10
2018-09-11T05:06:01.069Z,2.20
2018-09-11T05:07:01.034Z,2.00
2018-09-11T05:08:00.995Z,1.90
2018-09-11T05:09:00.960Z,2.00
2018-09-11T05:10:00.933Z,2.00
2018-09-11T05:11:00.892Z,2.20
2018-09-11T05:12:00.856Z,2.00
2018-09-11T05:13:00.821Z,2.40
2018-09-11T05:14:00.781Z,1.90
2018-09-11T05:15:00.747Z,2.10
2018-09-11T05:16:00.715Z,2.20
2018-09-11T05:17:00.681Z,1.90
2018-09-11T05:18:00.642Z,1.80
2018-09-11T05:19:00.626Z,2.10
2018-09-11T05:20:00.575Z,1.90
2018-09-11T05:21:00.535Z,2.20
2018-09-11T05:22:00.496Z,2.10
2018-09-11T05:23:00.459Z,1.80
2018-09-11T05:24:00.428Z,2.00
2018-09-11T05:25:00.390Z,2.10
2018-09-11T05:26:00.353Z,2.00
2018-09-11T05:27:00.316Z,2.20
2018-09-11T05:28:00.287Z,2.10
2018-09-11T05:29:00.252Z,2.00
2018-09-11T05:30:00.221Z,1.70
2018-09-11T05:31:00.185Z,2.00
2018-09-11T05:32:00.141Z,2.10
2018-09-11T05:33:00.109Z,2.10
2018-09-11T05:34:00.070Z,2.00
2018-09-11T05:35:00.032Z,1.90
2018-09-11T05:36:00.003Z,2.10
2018-09-11T05:36:59.964Z,1.90
2018-09-11T05:37:59.935Z,2.00
2018-09-11T05:38:59.903Z,2.10
2018-09-11T05:39:59.856Z,2.10
2018-09-11T05:40:59.825Z,2.00
2018-09-11T05:41:59.788Z,2.20
2018-09-11T05:42:59.789Z,1.90
2018-09-11T05:43:59.716Z,2.10
2018-09-11T05:44:59.684Z,1.90
2018-09-11T05:45:59.645Z,1.90
2018-09-11T05:46:59.644Z,1.80
2018-09-11T05:47:59.579Z,1.80
2018-09-11T05:48:59.540Z,2.10
2018-09-11T05:49:59.514Z,1.80
2018-09-11T05:50:59.471Z,1.90
2018-09-11T05:51:59.431Z,2.00
2018-09-11T05:52:59.400Z,1.80
2018-09-11T05:53:59.361Z,2.10
2018-09-11T05:54:59.325Z,1.60
2018-09-11T05:55:59.296Z,1.80
2018-09-11T05:56:59.258Z,1.90
2018-09-11T05:57:59.222Z,1.70
2018-09-11T05:58:59.189Z,1.70
2018-09-11T05:59:59.155Z,2.00
2018-09-11T06:00:59.115Z,1.90
2018-09-11T06:01:59.083Z,2.00
2018-09-11T06:02:59.048Z,1.70
2018-09-11T06:03:59.007Z,1.90
2018-09-11T06:04:58.972Z,2.00
2018-09-11T06:05:58.939Z,1.80
2018-09-11T06:06:58.907Z,1.90
2018-09-11T06:07:58.875Z,1.90
2018-09-11T06:08:58.833Z,1.80
2018-09-11T06:09:58.800Z,1.80
2018-09-11T06:10:58.768Z,1.80
2018-09-11T06:11:58.725Z,1.80
2018-09-11T06:12:58.697Z,1.60
2018-09-11T06:13:58.658Z,1.90
2018-09-11T06:14:58.635Z,1.70
2018-09-11T06:15:58.588Z,1.90
2018-09-11T06:16:58.555Z,2.00
2018-09-11T06:17:58.519Z,1.50
2018-09-11T06:18:58.481Z,1.80
2018-09-11T06:19:58.453Z,1.70
2018-09-11T06:20:58.414Z,2.10
2018-09-11T06:21:58.376Z,1.80
2018-09-11T06:22:58.343Z,1.70
2018-09-11T06:23:58.303Z,1.70
2018-09-11T06:24:58.269Z,1.80
2018-09-11T06:25:58.238Z,1.80
2018-09-11T06:26:58.230Z,1.80
2018-09-11T06:27:58.168Z,1.60
2018-09-11T06:28:58.136Z,1.70
2018-09-11T06:29:58.096Z,1.70
2018-09-11T06:30:58.056Z,1.50
2018-09-11T06:31:58.027Z,2.10
2018-09-11T06:32:57.990Z,1.80
2018-09-11T06:33:57.959Z,1.70
2018-09-11T06:34:57.924Z,1.60
2018-09-11T06:35:57.884Z,1.90
2018-09-11T06:36:57.885Z,1.70
2018-09-11T06:37:57.815Z,1.60
2018-09-11T06:38:57.781Z,1.50
2018-09-11T06:39:57.749Z,1.50
2018-09-11T06:40:57.719Z,1.60
2018-09-11T06:41:57.687Z,1.60
2018-09-11T06:42:57.662Z,1.60
2018-09-11T06:43:57.603Z,1.70
2018-09-11T06:44:57.570Z,1.70
2018-09-11T06:45:57.562Z,1.60
2018-09-11T06:46:57.525Z,1.70
2018-09-11T06:47:57.464Z,1.70
2018-09-11T06:48:57.429Z,1.80
2018-09-11T06:49:57.400Z,1.70
2018-09-11T06:50:57.363Z,1.60
2018-09-11T06:51:57.331Z,1.70
2018-09-11T06:52:57.298Z,1.70
2018-09-11T06:53:57.262Z,1.70
2018-09-11T06:54:57.234Z,1.70
2018-09-11T06:55:57.190Z,1.80
2018-09-11T06:56:57.154Z,1.60
2018-09-11T06:57:57.122Z,1.50
2018-09-11T06:58:57.109Z,1.80
2018-09-11T06:59:57.055Z,1.30
2018-09-11T07:00:57.026Z,1.60
2018-09-11T07:01:57.068Z,1.40
2018-09-11T07:02:56.949Z,1.40
2018-09-11T07:03:56.919Z,1.50
2018-09-11T07:04:56.881Z,1.80
2018-09-11T07:05:56.847Z,1.90
2018-09-11T07:06:56.818Z,1.50
2018-09-11T07:07:56.782Z,1.50
2018-09-11T07:08:56.745Z,1.70
2018-09-11T07:09:56.711Z,1.60
2018-09-11T07:10:56.673Z,1.60
2018-09-11T07:11:56.662Z,1.70
2018-09-11T07:12:56.610Z,1.50
2018-09-11T07:13:56.605Z,1.60
2018-09-11T07:14:56.541Z,1.60
2018-09-11T07:15:56.502Z,1.50
2018-09-11T07:16:56.468Z,1.60
2018-09-11T07:17:56.444Z,1.70
2018-09-11T07:18:56.406Z,1.50
2018-09-11T07:19:56.499Z,1.40
2018-09-11T07:20:56.333Z,1.50
2018-09-11T07:21:56.300Z,1.60
2018-09-11T07:22:56.268Z,1.70
2018-09-11T07:23:56.234Z,1.40
2018-09-11T07:24:56.201Z,1.60
2018-09-11T07:25:56.177Z,1.40
2018-09-11T07:26:56.134Z,1.60
2018-09-11T07:27:56.101Z,1.50
2018-09-11T07:28:56.068Z,1.60
2018-09-11T07:29:56.029Z,1.40
2018-09-11T07:30:55.994Z,1.40
2018-09-11T07:31:55.969Z,1.70
2018-09-11T07:32:55.929Z,1.50
2018-09-11T07:33:55.894Z,1.30
2018-09-11T07:34:55.859Z,1.60
2018-09-11T07:35:55.833Z,1.60
2018-09-11T07:36:55.802Z,1.40
2018-09-11T07:37:55.811Z,1.50
2018-09-11T07:38:55.749Z,1.40
2018-09-11T07:39:55.693Z,1.60
2018-09-11T07:40:55.659Z,1.50
2018-09-11T07:41:55.624Z,1.50
2018-09-11T07:42:55.591Z,1.40
2018-09-11T07:43:55.562Z,1.60
2018-09-11T07:44:55.526Z,1.80
2018-09-11T07:45:55.499Z,1.70
2018-09-11T07:46:55.460Z,1.60
2018-09-11T07:47:55.422Z,1.50
2018-09-11T07:48:55.437Z,1.60
2018-09-11T07:49:55.369Z,1.50
2018-09-11T07:50:55.327Z,1.60
2018-09-11T07:51:55.288Z,1.50
2018-09-11T07:52:55.268Z,1.60
2018-09-11T07:53:55.231Z,1.70
2018-09-11T07:54:55.195Z,1.60
2018-09-11T07:55:55.161Z,1.50
2018-09-11T07:56:55.126Z,1.70
2018-09-11T07:57:55.165Z,1.60
2018-09-11T07:58:55.063Z,1.70
2018-09-11T07:59:55.029Z,1.60
2018-09-11T08:00:54.993Z,1.60
2018-09-11T08:01:54.959Z,1.60
2018-09-11T08:02:54.953Z,1.70
2018-09-11T08:03:54.949Z,1.60
2018-09-11T08:04:54.865Z,1.70
2018-09-11T08:05:54.831Z,1.70
2018-09-11T08:06:54.798Z,1.80
2018-09-11T08:07:54.768Z,1.70
2018-09-11T08:08:54.734Z,1.70
2018-09-11T08:09:54.702Z,1.60
2018-09-11T08:10:54.667Z,1.60
2018-09-11T08:11:54.630Z,2.10
2018-09-11T08:12:54.596Z,1.50
2018-09-11T08:13:54.561Z,1.80
2018-09-11T08:14:54.537Z,1.50
2018-09-11T08:15:54.499Z,1.70
2018-09-11T08:16:54.469Z,2.20
2018-09-11T08:17:54.495Z,1.40
2018-09-11T08:18:54.423Z,1.80
2018-09-11T08:19:54.394Z,1.60
2018-09-11T08:20:54.333Z,1.50
2018-09-11T08:21:54.310Z,1.70
2018-09-11T08:22:54.270Z,1.70
2018-09-11T08:23:54.239Z,1.60
2018-09-11T08:24:54.206Z,1.80
2018-09-11T08:25:54.171Z,1.70
2018-09-11T08:26:54.143Z,1.80
2018-09-11T08:27:54.106Z,1.70
2018-09-11T08:28:54.084Z,1.90
2018-09-11T08:29:54.052Z,1.80
2018-09-11T08:30:54.017Z,2.00
2018-09-11T08:31:53.979Z,1.80
2018-09-11T08:32:53.938Z,1.90
2018-09-11T08:33:53.924Z,1.80
2018-09-11T08:34:53.878Z,1.70
2018-09-11T08:35:53.853Z,1.70
2018-09-11T08:36:53.819Z,1.80
2018-09-11T08:37:53.778Z,1.70
2018-09-11T08:38:53.751Z,1.70
2018-09-11T08:39:53.719Z,1.90
2018-09-11T08:40:53.691Z,1.90
2018-09-11T08:41:53.657Z,1.80
2018-09-11T08:42:53.623Z,1.70
2018-09-11T08:43:53.587Z,1.70
2018-09-11T08:44:53.556Z,2.00
2018-09-11T08:45:53.522Z,1.80
2018-09-11T08:46:53.486Z,1.70
2018-09-11T08:47:53.462Z,2.00
2018-09-11T08:48:53.432Z,1.80
2018-09-11T08:49:53.418Z,1.80
2018-09-11T08:50:53.362Z,1.60
2018-09-11T08:51:53.326Z,1.70
2018-09-11T08:52:53.319Z,2.10
2018-09-11T08:53:53.267Z,1.90
2018-09-11T08:54:53.234Z,1.70
2018-09-11T08:55:53.195Z,1.50
2018-09-11T08:56:53.167Z,1.80
2018-09-11T08:57:53.131Z,1.70
2018-09-11T08:58:53.113Z,1.70
2018-09-11T08:59:53.069Z,1.70
2018-09-11T09:00:53.038Z,1.80
2018-09-11T09:01:53.008Z,1.80
2018-09-11T09:02:52.973Z,1.80
2018-09-11T09:03:52.939Z,1.80
2018-09-11T09:04:52.912Z,1.80
2018-09-11T09:05:52.875Z,1.70
2018-09-11T09:06:52.859Z,1.70
2018-09-11T09:07:52.816Z,1.80
2018-09-11T09:08:52.787Z,1.80
2018-09-11T09:09:52.755Z,1.80
2018-09-11T09:10:52.719Z,1.90
2018-09-11T09:11:52.701Z,1.70
2018-09-11T09:12:52.662Z,1.90
2018-09-11T09:13:52.628Z,1.90
2018-09-11T09:14:52.596Z,2.00
2018-09-11T09:15:52.558Z,2.10
2018-09-11T09:16:52.522Z,1.80
2018-09-11T09:17:52.494Z,1.70
2018-09-11T09:18:52.460Z,1.70
2018-09-11T09:19:52.453Z,1.80
2018-09-11T09:20:52.448Z,2.30
2018-09-11T09:21:52.372Z,2.30
2018-09-11T09:22:52.345Z,1.50
2018-09-11T09:23:52.303Z,1.50
2018-09-11T09:24:52.279Z,1.90
2018-09-11T09:25:52.245Z,1.60
2018-09-11T09:26:52.210Z,1.50
2018-09-11T09:27:52.175Z,1.50
2018-09-11T09:28:52.149Z,1.80
2018-09-11T09:29:52.135Z,1.80
2018-09-11T09:30:52.082Z,1.70
2018-09-11T09:31:52.064Z,1.70
2018-09-11T09:32:52.021Z,1.60
2018-09-11T09:33:51.991Z,1.70
2018-09-11T09:34:51.955Z,1.70
2018-09-11T09:35:51.921Z,1.80
2018-09-11T09:36:51.941Z,1.80
2018-09-11T09:37:51.860Z,2.20
2018-09-11T09:38:51.827Z,1.60
2018-09-11T09:39:51.800Z,1.60
2018-09-11T09:40:51.771Z,1.60
2018-09-11T09:41:51.729Z,1.50
2018-09-11T09:42:51.706Z,1.70
2018-09-11T09:43:51.729Z,1.60
2018-09-11T09:44:51.645Z,1.60
2018-09-11T09:45:51.612Z,1.70
2018-09-11T09:46:51.577Z,1.70
2018-09-11T09:47:51.550Z,1.60
2018-09-11T09:48:51.515Z,1.60
2018-09-11T09:49:51.484Z,1.60
2018-09-11T09:50:51.475Z,1.80
2018-09-11T09:51:51.421Z,1.80
2018-09-11T09:52:51.393Z,1.80
2018-09-11T09:53:51.361Z,1.70
2018-09-11T09:54:51.333Z,2.20
2018-09-11T09:55:51.295Z,1.40
2018-09-11T09:56:51.265Z,1.50
2018-09-11T09:57:51.235Z,1.70
2018-09-11T09:58:51.205Z,1.70
2018-09-11T09:59:51.170Z,1.80
2018-09-11T10:00:51.137Z,1.70
2018-09-11T10:01:51.116Z,1.50
2018-09-11T10:02:51.082Z,1.70
2018-09-11T10:03:51.048Z,1.70
2018-09-11T10:04:51.050Z,1.80
2018-09-11T10:05:50.985Z,1.40
2018-09-11T10:06:50.956Z,1.60
2018-09-11T10:21:24.311Z,1.40
2018-09-11T10:22:24.234Z,2.10
2018-09-11T10:23:24.196Z,1.70
2018-09-11T10:24:24.161Z,1.70
2018-09-11T10:25:24.129Z,2.00
2018-09-11T10:26:24.089Z,1.60
2018-09-11T10:27:24.057Z,2.40
2018-09-11T10:28:24.024Z,1.70
2018-09-11T10:29:24.000Z,1.70
2018-09-11T10:30:23.950Z,1.80
2018-09-11T10:31:23.926Z,1.80
2018-09-11T10:32:23.890Z,1.80
2018-09-11T10:33:23.856Z,1.70
2018-09-11T10:34:23.834Z,1.60
2018-09-11T10:35:23.796Z,1.80
2018-09-11T10:36:23.765Z,1.80
2018-09-11T10:37:23.738Z,1.80
2018-09-11T10:38:23.701Z,2.00
2018-09-11T10:39:23.701Z,2.00
2018-09-11T10:40:23.641Z,1.70
2018-09-11T10:41:23.605Z,1.70
2018-09-11T10:42:23.578Z,1.80
2018-09-11T10:43:23.543Z,2.10
2018-09-11T10:44:23.514Z,2.00
2018-09-11T10:45:23.478Z,1.90
2018-09-11T10:46:23.460Z,2.00
2018-09-11T10:47:23.420Z,1.90
2018-09-11T10:48:23.393Z,1.60
2018-09-11T10:49:23.361Z,1.80
2018-09-11T10:50:23.325Z,1.90
2018-09-11T10:51:23.295Z,1.70
2018-09-11T10:52:23.266Z,1.90
2018-09-11T10:53:23.231Z,1.80
2018-09-11T10:54:23.211Z,1.70
2018-09-11T10:55:23.175Z,1.80
2018-09-11T10:56:23.144Z,2.00
2018-09-11T10:57:23.116Z,1.80
2018-09-11T10:58:23.088Z,2.00
2018-09-11T10:59:23.050Z,1.70
2018-09-11T11:00:23.085Z,1.80
2018-09-11T11:01:22.993Z,1.80
2018-09-11T11:02:22.958Z,1.90
2018-09-11T11:03:22.930Z,1.80
2018-09-11T11:04:22.901Z,1.60
2018-09-11T11:05:22.867Z,1.70
2018-09-11T11:06:22.850Z,1.80
2018-09-11T11:07:22.811Z,1.80
2018-09-11T11:08:22.780Z,1.80
2018-09-11T11:09:22.752Z,1.70
2018-09-11T11:10:22.717Z,1.70
2018-09-11T11:11:22.686Z,2.00
2018-09-11T11:12:22.655Z,1.80
2018-09-11T11:13:22.623Z,1.80
2018-09-11T11:14:22.603Z,1.50
2018-09-11T11:15:22.569Z,1.80
2018-09-11T11:16:22.540Z,1.70
2018-09-11T11:17:22.502Z,1.70
2018-09-11T11:18:22.479Z,2.20
2018-09-11T11:19:22.445Z,2.00
2018-09-11T11:20:22.420Z,1.70
2018-09-11T11:21:22.389Z,1.60
2018-09-11T11:22:22.351Z,1.70
2018-09-11T11:23:22.327Z,1.80
2018-09-11T11:24:22.298Z,1.70
2018-09-11T11:25:22.266Z,1.50
2018-09-11T11:26:22.237Z,1.70
2018-09-11T11:27:22.213Z,1.90
2018-09-11T11:28:22.176Z,1.80
2018-09-11T11:29:22.149Z,1.80
2018-09-11T11:30:22.113Z,1.80
2018-09-11T11:31:22.084Z,1.70
2018-09-11T11:32:22.074Z,1.70
2018-09-11T11:33:22.032Z,1.60
2018-09-11T11:34:21.997Z,1.60
2018-09-11T11:35:21.965Z,1.50
2018-09-11T11:36:22.007Z,1.60
2018-09-11T11:37:22.010Z,1.70
2018-09-11T11:38:21.883Z,2.00
2018-09-11T11:39:21.849Z,1.90
2018-09-11T11:40:21.829Z,1.90
2018-09-11T11:41:21.798Z,1.60
2018-09-11T11:42:21.768Z,1.60
2018-09-11T11:43:21.731Z,1.80
2018-09-11T11:44:21.703Z,1.70
2018-09-11T11:45:21.672Z,1.80
2018-09-11T11:46:21.643Z,1.50
2018-09-11T11:47:21.610Z,1.70
2018-09-11T11:48:21.648Z,1.50
2018-09-11T11:49:21.547Z,1.80
2018-09-11T11:50:21.530Z,1.70
2018-09-11T11:51:21.495Z,1.40
2018-09-11T11:52:21.466Z,1.80
2018-09-11T11:53:21.437Z,1.50
2018-09-11T11:54:21.400Z,1.50
2018-09-11T11:55:21.407Z,1.70
2018-09-11T11:56:21.345Z,1.50
2018-09-11T11:57:21.311Z,1.50
2018-09-11T11:58:21.291Z,1.70
2018-09-11T11:59:21.258Z,1.70
2018-09-11T12:00:21.226Z,1.60
2018-09-11T12:01:21.215Z,1.60
2018-09-11T12:02:21.166Z,1.60
2018-09-11T12:03:21.135Z,1.60
2018-09-11T12:04:21.110Z,1.70
2018-09-11T12:05:21.089Z,1.60
2018-09-11T12:06:21.052Z,1.60
2018-09-11T12:07:21.020Z,1.60
2018-09-11T12:08:20.991Z,1.60
2018-09-11T12:09:20.959Z,1.70
2018-09-11T12:10:20.938Z,1.70
2018-09-11T12:11:20.904Z,1.60
2018-09-11T12:12:20.881Z,1.50
2018-09-11T12:13:20.844Z,1.50
2018-09-11T12:14:20.819Z,1.70
2018-09-11T12:15:20.783Z,1.80
2018-09-11T12:16:20.821Z,1.70
2018-09-11T12:17:20.724Z,1.90
2018-09-11T12:18:20.702Z,1.60
2018-09-11T12:19:20.671Z,1.80
2018-09-11T12:20:20.638Z,1.40
2018-09-11T12:21:20.611Z,1.70
2018-09-11T12:22:20.581Z,1.40
2018-09-11T12:23:20.562Z,1.60
2018-09-11T12:24:20.526Z,1.80
2018-09-11T12:25:20.507Z,1.60
2018-09-11T12:26:20.496Z,1.80
2018-09-11T12:27:20.433Z,1.70
2018-09-11T12:28:20.407Z,1.80
2018-09-11T12:29:20.375Z,1.70
2018-09-11T12:30:20.354Z,1.70
2018-09-11T12:31:20.320Z,1.80
2018-09-11T12:32:20.292Z,1.80
2018-09-11T12:33:20.262Z,1.60
2018-09-11T12:34:20.234Z,1.60
2018-09-11T12:35:20.203Z,1.80
2018-09-11T12:36:20.175Z,1.80
2018-09-11T12:37:20.146Z,1.60
2018-09-11T12:38:20.118Z,1.80
2018-09-11T12:39:20.082Z,1.70
2018-09-11T12:40:20.053Z,1.80
2018-09-11T12:41:20.027Z,1.70
2018-09-11T12:42:20.002Z,1.90
2018-09-11T12:43:19.978Z,1.90
2018-09-11T12:44:19.945Z,1.60
2018-09-11T12:45:19.915Z,1.80
2018-09-11T12:46:20.023Z,1.80
2018-09-11T12:47:20.038Z,1.70
2018-09-11T12:48:20.221Z,2.00
2018-09-11T12:49:19.796Z,2.00
2018-09-11T12:50:19.784Z,2.00
2018-09-11T12:51:19.741Z,1.90
2018-09-11T12:52:19.706Z,1.80
2018-09-11T12:53:19.678Z,1.70
2018-09-11T12:54:19.668Z,2.00
2018-09-11T12:55:19.630Z,1.80
2018-09-11T12:56:19.597Z,1.60
2018-09-11T12:57:19.574Z,1.90
2018-09-11T12:58:19.535Z,1.70
2018-09-11T12:59:19.504Z,1.90
2018-09-11T13:00:19.487Z,1.80
2018-09-11T13:01:19.451Z,1.80
2018-09-11T13:02:19.427Z,1.90
2018-09-11T13:03:19.395Z,1.60
2018-09-11T13:04:19.365Z,1.90
2018-09-11T13:05:19.338Z,2.10
2018-09-11T13:06:19.306Z,1.80
2018-09-11T13:07:19.274Z,1.70
2018-09-11T13:08:19.252Z,1.90
2018-09-11T13:09:19.225Z,2.10
2018-09-11T13:10:19.189Z,1.80
2018-09-11T13:11:19.161Z,1.90
2018-09-11T13:12:19.132Z,1.80
2018-09-11T13:13:19.103Z,1.70
2018-09-11T13:14:19.124Z,1.90
2018-09-11T13:15:19.049Z,1.90
2018-09-11T13:16:19.020Z,1.90
2018-09-11T13:17:19.009Z,1.90
2018-09-11T13:18:18.961Z,1.60
2018-09-11T13:19:18.931Z,2.00
2018-09-11T13:20:18.905Z,1.80
2018-09-11T13:21:18.875Z,1.90
2018-09-11T13:22:18.851Z,1.60
2018-09-11T13:23:18.818Z,1.60
2018-09-11T13:24:18.787Z,1.80
2018-09-11T13:25:18.801Z,1.80
2018-09-11T13:26:18.736Z,1.80
2018-09-11T13:27:18.708Z,1.90
2018-09-11T13:28:18.676Z,1.80
2018-09-11T13:29:18.645Z,1.80
2018-09-11T13:30:18.614Z,2.00
2018-09-11T13:31:18.590Z,1.90
2018-09-11T13:32:18.555Z,2.00
2018-09-11T13:33:18.530Z,2.00
2018-09-11T13:34:18.503Z,1.80
2018-09-11T13:35:18.477Z,1.80
2018-09-11T13:36:18.447Z,1.90
2018-09-11T13:37:18.418Z,2.10
2018-09-11T13:38:18.395Z,1.90
2018-09-11T13:39:18.359Z,2.10
2018-09-11T13:40:18.337Z,2.20
2018-09-11T13:41:18.303Z,1.80
2018-09-11T13:42:18.276Z,1.90
2018-09-11T13:43:18.247Z,2.00